Time;durP1;ratioP1;P1;durP2;ratioP2;P2;SDS_P1;SDS_P2;PMS_P1;PMS_P2;Temp;Humidity;BMP_temperature;BMP_pressure;BME280_temperature;BME280_humidity;BME280_pressure;Samples;Min_cycle;Max_cycle;Signal;HPM_P1;HPM_P2
2023/05/12 00:00:38;;;;;;;;;5.75;3.75;;;;;14.39;81.18;99649.84;5116185;28;8824;-59
2023/05/12 00:03:06;;;;;;;;;6.00;6.00;;;;;14.39;81.41;99652.53;5116186;28;8844;-61
2023/05/12 00:05:34;;;;;;;;;3.50;3.25;;;;;14.38;80.95;99658.03;5116409;28;8855;-61
2023/05/12 00:08:02;;;;;;;;;6.25;5.00;;;;;14.37;81.16;99659.03;5116455;28;8812;-61
2023/05/12 00:10:29;;;;;;;;;4.00;3.00;;;;;14.34;81.27;99659.34;5116158;28;8812;-61
2023/05/12 00:12:58;;;;;;;;;5.75;3.50;;;;;14.31;81.56;99652.47;5116590;28;8838;-61
2023/05/12 00:15:26;;;;;;;;;2.50;2.50;;;;;14.29;81.16;99661.63;5116491;28;8933;-61
2023/05/12 00:17:54;;;;;;;;;4.00;4.00;;;;;14.27;81.36;99663.63;5116308;28;8831;-60
2023/05/12 00:20:21;;;;;;;;;3.25;3.25;;;;;14.24;81.53;99655.88;5116264;28;8843;-58
2023/05/12 00:22:49;;;;;;;;;3.75;3.75;;;;;14.23;81.95;99659.56;5116323;28;8838;-60
2023/05/12 00:25:16;;;;;;;;;4.75;3.00;;;;;14.22;81.54;99666.78;5116649;28;9500;-61
2023/05/12 00:27:44;;;;;;;;;7.00;5.50;;;;;14.19;81.51;99666.22;5115588;28;8800;-60
2023/05/12 00:30:12;;;;;;;;;5.50;5.50;;;;;14.16;81.45;99661.13;5115522;28;8827;-60
2023/05/12 00:32:40;;;;;;;;;9.00;7.00;;;;;14.14;82.17;99674.69;5115908;28;8820;-61
2023/05/12 00:35:07;;;;;;;;;6.00;5.00;;;;;14.12;81.71;99673.97;5115698;28;9760;-61
2023/05/12 00:37:35;;;;;;;;;6.50;4.00;;;;;14.09;81.61;99676.09;5115327;28;8832;-61
2023/05/12 00:40:03;;;;;;;;;2.25;1.50;;;;;14.06;82.00;99677.28;5116344;28;8837;-60
2023/05/12 00:42:31;;;;;;;;;3.25;3.00;;;;;14.04;82.06;99679.25;5116296;28;8948;-60
2023/05/12 00:44:59;;;;;;;;;1.00;1.00;;;;;14.01;82.08;99679.56;5116375;28;8840;-60
2023/05/12 00:47:26;;;;;;;;;3.50;3.00;;;;;13.98;82.53;99679.00;5115765;28;8870;-58
2023/05/12 00:49:54;;;;;;;;;3.50;3.50;;;;;13.96;82.23;99679.16;5115989;28;8837;-61
2023/05/12 00:52:22;;;;;;;;;2.00;1.00;;;;;13.95;82.08;99679.28;5116267;28;8866;-61
2023/05/12 00:54:51;;;;;;;;;2.50;1.00;;;;;13.93;82.33;99686.63;5115847;28;8828;-59
2023/05/12 00:57:19;;;;;;;;;2.00;1.00;;;;;13.91;82.04;99677.91;5115860;28;9008;-61
2023/05/12 00:59:46;;;;;;;;;2.00;2.00;;;;;13.90;82.18;99681.59;5115912;28;8994;-59
2023/05/12 01:02:14;;;;;;;;;0.00;0.00;;;;;13.90;82.64;99682.41;5116051;28;9462;-60
2023/05/12 01:04:42;;;;;;;;;1.50;1.00;;;;;13.89;82.40;99683.41;5115151;28;8929;-57
2023/05/12 01:07:09;;;;;;;;;2.50;1.50;;;;;13.90;82.81;99690.44;5115433;28;8824;-59
2023/05/12 01:09:37;;;;;;;;;1.00;1.00;;;;;13.90;82.24;99689.63;5115026;28;8820;-58
2023/05/12 01:12:05;;;;;;;;;1.50;0.75;;;;;13.89;82.26;99686.09;5114772;28;8850;-59
2023/05/12 01:14:33;;;;;;;;;1.50;1.00;;;;;13.89;82.35;99685.25;5115593;28;8831;-59
2023/05/12 01:17:02;;;;;;;;;1.00;1.00;;;;;13.88;82.07;99678.22;5116528;28;8827;-59
2023/05/12 01:19:30;;;;;;;;;1.00;1.00;;;;;13.87;82.12;99682.72;5118821;28;8813;-59
2023/05/12 01:21:57;;;;;;;;;2.25;2.25;;;;;13.87;82.51;99687.22;5119371;28;8859;-59
2023/05/12 01:24:25;;;;;;;;;3.75;1.00;;;;;13.86;82.03;99681.03;5119568;28;9547;-60
2023/05/12 01:26:53;;;;;;;;;1.50;1.50;;;;;13.86;82.61;99686.41;5119051;28;8804;-59
2023/05/12 01:29:21;;;;;;;;;3.00;3.00;;;;;13.86;82.20;99685.53;5119217;28;8946;-60
2023/05/12 01:31:48;;;;;;;;;3.00;2.00;;;;;13.85;82.71;99686.53;5119215;28;9586;-59
2023/05/12 01:34:17;;;;;;;;;3.00;2.00;;;;;13.82;82.47;99676.16;5119149;28;8917;-61
2023/05/12 01:36:45;;;;;;;;;2.00;2.00;;;;;13.81;82.58;99677.97;5118900;28;8820;-60
2023/05/12 01:39:13;;;;;;;;;4.00;3.00;;;;;13.80;82.35;99691.47;5119002;28;8839;-60
2023/05/12 01:41:41;;;;;;;;;1.00;1.00;;;;;13.79;83.01;99689.81;5119234;28;8842;-59
2023/05/12 01:44:08;;;;;;;;;1.00;1.00;;;;;13.78;82.37;99694.34;5119131;28;8839;-59
2023/05/12 01:46:36;;;;;;;;;3.00;3.00;;;;;13.76;82.91;99693.66;5118474;28;8827;-61
2023/05/12 01:49:04;;;;;;;;;1.00;1.00;;;;;13.74;82.58;99697.47;5119161;28;8823;-61
2023/05/12 01:51:31;;;;;;;;;1.00;1.00;;;;;13.73;83.05;99695.78;5119175;28;8808;-61
2023/05/12 01:53:59;;;;;;;;;3.25;3.00;;;;;13.71;82.47;99698.59;5119072;28;8832;-61
2023/05/12 01:56:27;;;;;;;;;1.00;1.00;;;;;13.71;82.13;99697.72;5118485;28;8838;-59
2023/05/12 01:58:55;;;;;;;;;1.00;1.00;;;;;13.69;83.04;99697.91;5119401;28;9481;-60
2023/05/12 02:01:24;;;;;;;;;3.75;1.00;;;;;13.69;82.38;99705.06;5118993;28;8824;-62
2023/05/12 02:03:53;;;;;;;;;3.00;3.00;;;;;13.69;83.06;99705.94;5118507;28;8870;-61
2023/05/12 02:06:21;;;;;;;;;1.00;1.00;;;;;13.71;82.35;99713.78;5118556;28;8823;-61
2023/05/12 02:08:48;;;;;;;;;1.00;0.25;;;;;13.70;82.07;99715.63;5118695;28;8849;-61
2023/05/12 02:11:16;;;;;;;;;0.00;0.00;;;;;13.73;82.37;99714.50;5118532;28;8858;-61
2023/05/12 02:13:44;;;;;;;;;3.00;1.00;;;;;13.73;82.33;99711.84;5118504;28;8832;-60
2023/05/12 02:16:11;;;;;;;;;3.00;1.00;;;;;13.73;82.69;99718.00;5118413;28;8873;-60
2023/05/12 02:18:39;;;;;;;;;1.00;0.50;;;;;13.73;82.43;99712.66;5117483;28;8859;-60
2023/05/12 02:21:07;;;;;;;;;3.50;2.50;;;;;13.76;82.30;99712.38;5118609;28;8824;-59
2023/05/12 02:23:35;;;;;;;;;3.00;3.00;;;;;13.76;82.69;99716.88;5118588;28;8824;-61
2023/05/12 02:26:02;;;;;;;;;4.00;4.00;;;;;13.74;82.11;99708.16;5117819;28;8823;-60
2023/05/12 02:28:30;;;;;;;;;5.00;3.25;;;;;13.72;82.25;99720.81;5117949;28;8808;-61
2023/05/12 02:30:58;;;;;;;;;1.50;1.50;;;;;13.70;82.26;99714.78;5118371;28;8816;-60
2023/05/12 02:33:25;;;;;;;;;3.00;3.00;;;;;13.68;82.22;99708.75;5118284;28;8824;-60
2023/05/12 02:35:53;;;;;;;;;3.25;1.00;;;;;13.65;82.60;99714.38;5118228;28;8941;-61
2023/05/12 02:38:20;;;;;;;;;3.00;3.00;;;;;13.63;82.93;99708.34;5118162;28;8820;-61
2023/05/12 02:40:48;;;;;;;;;4.00;3.00;;;;;13.61;83.17;99715.66;5118027;28;8843;-61
2023/05/12 02:43:16;;;;;;;;;4.25;4.25;;;;;13.61;82.79;99718.34;5118091;28;8834;-60
2023/05/12 02:45:44;;;;;;;;;3.00;1.00;;;;;13.61;82.92;99713.84;5117883;28;8828;-60
2023/05/12 02:48:12;;;;;;;;;3.75;3.75;;;;;13.61;82.66;99715.66;5117188;28;8930;-60
2023/05/12 02:50:39;;;;;;;;;6.00;4.50;;;;;13.61;82.88;99716.53;5117801;28;8820;-61
2023/05/12 02:53:07;;;;;;;;;3.00;3.00;;;;;13.61;82.33;99713.00;5117849;28;8901;-60
2023/05/12 02:55:35;;;;;;;;;4.50;4.00;;;;;13.61;82.84;99715.66;5117277;28;8836;-60
2023/05/12 02:58:03;;;;;;;;;1.00;1.00;;;;;13.61;82.50;99721.03;5116245;28;8839;-60
2023/05/12 03:00:31;;;;;;;;;3.50;3.50;;;;;13.59;82.27;99712.31;5116899;28;8820;-60
2023/05/12 03:02:58;;;;;;;;;3.00;3.00;;;;;13.58;82.43;99719.47;5117238;28;8909;-60
2023/05/12 03:05:26;;;;;;;;;3.75;3.50;;;;;13.57;82.84;99717.78;5117422;28;8848;-60
2023/05/12 03:07:54;;;;;;;;;4.50;4.00;;;;;13.57;82.84;99716.94;5117153;28;8808;-61
2023/05/12 03:10:22;;;;;;;;;3.00;3.00;;;;;13.57;82.48;99712.44;5117291;28;8843;-60
2023/05/12 03:12:50;;;;;;;;;3.75;3.50;;;;;13.58;82.78;99718.66;5117183;28;8840;-60
2023/05/12 03:15:17;;;;;;;;;4.50;4.00;;;;;13.57;82.63;99723.16;5117031;28;8859;-59
2023/05/12 03:17:45;;;;;;;;;3.00;3.00;;;;;13.57;82.92;99719.63;5116424;28;8950;-60
2023/05/12 03:20:13;;;;;;;;;3.00;3.00;;;;;13.54;83.00;99717.25;5117304;28;8816;-59
2023/05/12 03:22:41;;;;;;;;;3.00;3.00;;;;;13.52;82.48;99724.56;5117292;28;8828;-60
2023/05/12 03:25:09;;;;;;;;;3.00;2.50;;;;;13.49;82.64;99725.72;5116927;28;8908;-60
2023/05/12 03:27:36;;;;;;;;;4.00;3.50;;;;;13.49;82.70;99727.53;5116661;28;8811;-60
2023/05/12 03:30:05;;;;;;;;;1.00;1.00;;;;;13.47;82.50;99732.19;5117052;28;8827;-60
2023/05/12 03:32:33;;;;;;;;;6.00;3.25;;;;;13.45;82.52;99729.66;5116976;28;8815;-58
2023/05/12 03:35:01;;;;;;;;;3.00;3.00;;;;;13.43;82.54;99731.63;5115662;28;8858;-60
2023/05/12 03:37:29;;;;;;;;;1.00;1.00;;;;;13.43;82.69;99733.47;5115880;28;8831;-59
2023/05/12 03:39:57;;;;;;;;;0.00;0.00;;;;;13.42;82.90;99731.78;5116009;28;8827;-59
2023/05/12 03:42:24;;;;;;;;;4.00;3.75;;;;;13.41;82.74;99735.44;5116211;28;8820;-60
2023/05/12 03:44:52;;;;;;;;;3.00;3.00;;;;;13.40;83.36;99733.75;5116787;28;8819;-60
2023/05/12 03:47:20;;;;;;;;;3.00;3.00;;;;;13.37;82.54;99734.88;5115646;28;8827;-60
2023/05/12 03:49:47;;;;;;;;;3.00;3.00;;;;;13.37;82.76;99731.38;5116008;28;9613;-59
2023/05/12 03:52:15;;;;;;;;;3.00;2.50;;;;;13.37;82.67;99734.06;5115956;28;8839;-60
2023/05/12 03:54:43;;;;;;;;;3.00;3.00;;;;;13.37;82.99;99732.22;5116184;28;8840;-58
2023/05/12 03:57:11;;;;;;;;;1.00;1.00;;;;;13.36;83.25;99735.88;5115752;28;8808;-60
2023/05/12 03:59:39;;;;;;;;;1.00;1.00;;;;;13.35;83.16;99739.53;5116283;28;8831;-58
2023/05/12 04:02:10;;;;;;;;;3.25;3.00;;;;;13.36;82.65;99729.69;5116231;28;8911;-60
2023/05/12 04:04:38;;;;;;;;;1.50;1.50;;;;;13.34;83.10;99735.19;5116517;28;8851;-59
2023/05/12 04:07:06;;;;;;;;;6.00;4.00;;;;;13.33;82.93;99743.34;5115895;28;8944;-60
2023/05/12 04:09:34;;;;;;;;;3.00;3.00;;;;;13.32;82.85;99741.66;5115999;28;8855;-60
2023/05/12 04:12:01;;;;;;;;;2.50;2.50;;;;;13.31;82.81;99746.19;5116248;28;8850;-60
2023/05/12 04:14:30;;;;;;;;;3.50;3.00;;;;;13.29;83.02;99747.31;5115923;28;8827;-59
2023/05/12 04:17:09;;;;;;;;;3.50;3.00;;;;;13.27;82.99;99751.94;5115476;28;8843;-59
2023/05/12 04:19:37;;;;;;;;;3.00;3.00;;;;;13.25;82.99;99753.91;5116368;28;9528;-59
2023/05/12 04:22:05;;;;;;;;;3.75;3.00;;;;;13.23;82.75;99756.72;5115887;28;8912;-60
2023/05/12 04:24:32;;;;;;;;;1.00;1.00;;;;;13.22;83.06;99756.88;5115055;28;8827;-59
2023/05/12 04:27:00;;;;;;;;;2.00;1.00;;;;;13.20;83.17;99759.69;5116227;28;9481;-60
2023/05/12 04:29:28;;;;;;;;;1.50;1.50;;;;;13.19;82.81;99763.38;5115456;28;8832;-60
2023/05/12 04:31:56;;;;;;;;;1.00;1.00;;;;;13.19;82.83;99765.19;5115870;28;8833;-60
2023/05/12 04:34:24;;;;;;;;;2.50;2.00;;;;;13.17;83.42;99768.03;5115967;28;8854;-61
2023/05/12 04:36:51;;;;;;;;;5.00;3.50;;;;;13.18;83.23;99766.16;5115788;28;8851;-60
2023/05/12 04:39:19;;;;;;;;;3.50;3.25;;;;;13.17;83.04;99764.50;5115706;28;8928;-59
2023/05/12 04:41:47;;;;;;;;;2.50;2.50;;;;;13.18;82.63;99768.84;5115813;28;8885;-59
2023/05/12 04:44:15;;;;;;;;;3.00;3.00;;;;;13.20;82.45;99767.72;5115963;28;8844;-60
2023/05/12 04:46:43;;;;;;;;;3.00;1.50;;;;;13.24;82.52;99776.31;5115605;28;8838;-59
2023/05/12 04:49:10;;;;;;;;;3.00;1.00;;;;;13.27;82.43;99781.34;5115671;28;8840;-61
2023/05/12 04:51:41;;;;;;;;;3.50;3.50;;;;;13.30;82.53;99784.59;5115581;28;8847;-60
2023/05/12 04:54:09;;;;;;;;;1.00;1.00;;;;;13.35;82.56;99797.56;5119459;28;8828;-60
2023/05/12 04:56:38;;;;;;;;;3.25;3.25;;;;;13.40;82.21;99803.31;5119338;28;8823;-59
2023/05/12 04:59:06;;;;;;;;;3.00;3.00;;;;;13.44;81.73;99796.69;5119480;28;8824;-59
2023/05/12 05:01:34;;;;;;;;;4.00;4.00;;;;;13.49;81.93;99805.97;5119297;28;8836;-61
2023/05/12 05:04:01;;;;;;;;;3.00;3.00;;;;;13.55;81.81;99809.88;5119287;28;8844;-59
2023/05/12 05:06:29;;;;;;;;;3.00;2.00;;;;;13.59;82.14;99809.47;5118915;28;9454;-60
2023/05/12 05:08:57;;;;;;;;;6.25;6.25;;;;;13.63;81.78;99818.03;5118994;28;8844;-58
2023/05/12 05:11:24;;;;;;;;;4.00;3.00;;;;;13.66;81.71;99823.13;5119426;28;8827;-59
2023/05/12 05:13:52;;;;;;;;;3.00;3.00;;;;;13.68;81.87;99821.13;5118877;28;8831;-60
2023/05/12 05:16:20;;;;;;;;;4.50;4.00;;;;;13.69;81.81;99826.34;5118377;28;8850;-60
2023/05/12 05:18:49;;;;;;;;;4.00;4.00;;;;;13.71;82.04;99829.72;5118876;28;8912;-59
2023/05/12 05:21:17;;;;;;;;;6.00;3.00;;;;;13.71;82.05;99828.88;5118815;28;8823;-59
2023/05/12 05:23:45;;;;;;;;;3.25;3.00;;;;;13.72;81.88;99831.41;5118602;28;9490;-59
2023/05/12 05:26:12;;;;;;;;;3.00;3.00;;;;;13.74;81.66;99833.94;5117373;28;8823;-61
2023/05/12 05:28:40;;;;;;;;;6.00;6.00;;;;;13.76;81.55;99834.63;5118237;28;8860;-61
2023/05/12 05:31:08;;;;;;;;;3.75;3.75;;;;;13.78;81.35;99840.69;5118313;28;8854;-59
2023/05/12 05:33:36;;;;;;;;;4.00;4.00;;;;;13.81;81.45;99841.25;5118357;28;8954;-60
2023/05/12 05:36:05;;;;;;;;;4.00;4.00;;;;;13.87;81.44;99845.16;5118419;28;8828;-59
2023/05/12 05:38:32;;;;;;;;;4.00;3.00;;;;;13.93;81.75;99844.59;5118055;28;8816;-59
2023/05/12 05:41:00;;;;;;;;;4.00;4.00;;;;;14.00;81.12;99851.06;5117979;28;8851;-60
2023/05/12 05:43:29;;;;;;;;;6.00;4.00;;;;;14.07;80.70;99852.16;5118075;28;8836;-58
2023/05/12 05:45:57;;;;;;;;;5.00;4.00;;;;;14.12;80.40;99853.41;5117556;28;8831;-58
2023/05/12 05:48:24;;;;;;;;;4.00;4.00;;;;;14.19;80.69;99853.72;5117424;28;9469;-61
2023/05/12 05:50:52;;;;;;;;;2.00;2.00;;;;;14.25;80.76;99859.31;5117285;28;8853;-61
2023/05/12 05:53:20;;;;;;;;;5.50;4.50;;;;;14.34;80.65;99857.59;5115965;28;8879;-59
2023/05/12 05:55:48;;;;;;;;;6.25;4.50;;;;;14.38;80.59;99865.19;5115422;28;8836;-61
2023/05/12 05:58:16;;;;;;;;;6.75;5.00;;;;;14.44;80.47;99864.59;5115328;28;8827;-60
2023/05/12 06:00:43;;;;;;;;;6.00;6.00;;;;;14.49;80.14;99858.78;5114872;28;8816;-61
2023/05/12 06:03:11;;;;;;;;;5.00;5.00;;;;;14.50;80.57;99863.97;5115181;28;8820;-60
2023/05/12 06:05:40;;;;;;;;;4.00;4.00;;;;;14.53;80.46;99868.19;5115769;28;8978;-59
2023/05/12 06:08:11;;;;;;;;;6.75;6.00;;;;;14.53;80.42;99873.56;5115567;28;8828;-59
2023/05/12 06:10:40;;;;;;;;;4.50;4.00;;;;;14.53;80.55;99878.91;5115102;28;8836;-59
2023/05/12 06:13:07;;;;;;;;;3.50;3.00;;;;;14.51;80.24;99878.22;5114054;28;8824;-59
2023/05/12 06:15:35;;;;;;;;;4.50;4.00;;;;;14.46;80.64;99880.50;5114536;28;8812;-59
2023/05/12 06:18:03;;;;;;;;;7.50;6.50;;;;;14.42;81.09;99884.50;5115325;28;8816;-59
2023/05/12 06:20:31;;;;;;;;;1.75;1.50;;;;;14.38;80.70;99886.63;5115335;28;8828;-59
2023/05/12 06:22:59;;;;;;;;;3.75;3.75;;;;;14.35;81.39;99886.88;5115560;28;8835;-61
2023/05/12 06:25:26;;;;;;;;;3.50;3.25;;;;;14.34;80.81;99889.75;5115978;28;8837;-59
2023/05/12 06:27:54;;;;;;;;;7.00;6.00;;;;;14.33;80.65;99888.88;5116659;28;8828;-59
2023/05/12 06:30:22;;;;;;;;;5.00;5.00;;;;;14.34;81.41;99889.75;5116545;28;8844;-59
2023/05/12 06:32:50;;;;;;;;;6.50;4.50;;;;;14.32;81.21;99897.06;5117077;28;8852;-59
2023/05/12 06:35:18;;;;;;;;;4.25;3.75;;;;;14.33;81.06;99893.41;5116517;28;8852;-60
2023/05/12 06:37:49;;;;;;;;;6.00;4.00;;;;;14.37;80.61;99894.78;5115562;28;8836;-59
2023/05/12 06:40:17;;;;;;;;;3.25;3.25;;;;;14.40;80.76;99905.19;5115500;28;8840;-59
2023/05/12 06:42:45;;;;;;;;;4.00;3.50;;;;;14.43;80.38;99902.25;5115058;28;8832;-59
2023/05/12 06:45:14;;;;;;;;;7.00;7.00;;;;;14.45;80.55;99910.97;5115376;28;8840;-60
2023/05/12 06:47:42;;;;;;;;;6.00;6.00;;;;;14.50;81.02;99904.16;5114986;28;8828;-60
2023/05/12 06:50:09;;;;;;;;;7.00;6.00;;;;;14.54;80.59;99912.75;5114992;28;8828;-59
2023/05/12 06:52:37;;;;;;;;;7.00;6.00;;;;;14.56;80.04;99918.84;5115380;28;8824;-61
2023/05/12 06:55:05;;;;;;;;;6.25;6.25;;;;;14.57;80.59;99917.84;5115835;28;8812;-61
2023/05/12 06:57:33;;;;;;;;;5.25;4.50;;;;;14.58;80.74;99916.84;5116009;28;9792;-61
2023/05/12 07:00:02;;;;;;;;;5.50;4.00;;;;;14.60;80.49;99922.91;5116282;28;9771;-61
2023/05/12 07:02:30;;;;;;;;;6.00;5.50;;;;;14.63;80.09;99922.63;5116393;28;8831;-61
2023/05/12 07:04:59;;;;;;;;;2.00;2.00;;;;;14.67;80.32;99924.00;5116089;28;8856;-61
2023/05/12 07:07:27;;;;;;;;;6.50;6.00;;;;;14.72;79.82;99924.41;5116233;28;8823;-61
2023/05/12 07:09:55;;;;;;;;;7.50;7.25;;;;;14.77;79.86;99922.09;5107605;28;8828;-61
2023/05/12 07:12:23;;;;;;;;;4.50;4.25;;;;;14.82;80.26;99925.19;5115968;28;8839;-61
2023/05/12 07:14:51;;;;;;;;;6.00;5.00;;;;;14.87;79.88;99928.28;5114979;28;8827;-59
2023/05/12 07:17:20;;;;;;;;;6.00;4.00;;;;;14.91;79.73;99927.84;5115686;28;8836;-60
2023/05/12 07:19:48;;;;;;;;;2.00;2.00;;;;;14.94;80.10;99932.06;5115615;28;9839;-60
2023/05/12 07:22:16;;;;;;;;;6.50;6.25;;;;;14.96;79.95;99930.06;5115488;28;8823;-61
2023/05/12 07:24:44;;;;;;;;;3.00;3.00;;;;;14.99;79.62;99927.91;5115573;28;8864;-61
2023/05/12 07:27:12;;;;;;;;;4.00;4.00;;;;;15.05;79.46;99929.16;5115141;28;8832;-61
2023/05/12 07:29:40;;;;;;;;;4.00;4.00;;;;;15.10;79.36;99933.06;5115105;28;8893;-61
2023/05/12 07:32:08;;;;;;;;;6.00;4.00;;;;;15.18;79.46;99925.09;5114581;28;8848;-60
2023/05/12 07:34:36;;;;;;;;;6.25;5.25;;;;;15.29;79.10;99932.09;5114847;28;8840;-61
2023/05/12 07:37:05;;;;;;;;;6.00;6.00;;;;;15.40;78.65;99923.88;5114501;28;8870;-61
2023/05/12 07:39:33;;;;;;;;;5.00;5.00;;;;;15.53;79.21;99929.69;5115042;28;8909;-60
2023/05/12 07:42:00;;;;;;;;;5.00;5.00;;;;;15.65;78.90;99933.81;5114538;28;8830;-59
2023/05/12 07:44:29;;;;;;;;;7.50;4.00;;;;;15.76;77.98;99930.91;5115453;28;8847;-61
2023/05/12 07:46:57;;;;;;;;;5.00;4.00;;;;;15.85;77.92;99929.97;5115165;28;8828;-61
2023/05/12 07:49:25;;;;;;;;;6.00;5.50;;;;;15.95;77.51;99930.72;5115322;28;8831;-60
2023/05/12 07:51:53;;;;;;;;;5.50;4.00;;;;;16.04;77.03;99935.16;5115049;28;8861;-60
2023/05/12 07:54:21;;;;;;;;;3.00;3.00;;;;;16.14;77.57;99934.06;5115092;28;8844;-61
2023/05/12 07:56:49;;;;;;;;;5.20;5.20;;;;;16.23;77.14;99939.34;5114697;28;8958;-60
2023/05/12 07:59:17;;;;;;;;;7.00;7.00;;;;;16.31;77.08;99944.75;5114906;28;8870;-60
2023/05/12 08:01:45;;;;;;;;;4.00;4.00;;;;;16.36;77.36;99937.06;5115157;28;8854;-59
2023/05/12 08:04:13;;;;;;;;;3.80;3.00;;;;;16.45;77.11;99946.06;5114706;28;8855;-61
2023/05/12 08:06:41;;;;;;;;;6.00;6.00;;;;;16.50;76.88;99944.56;5114337;28;8832;-61
2023/05/12 08:09:09;;;;;;;;;6.00;6.00;;;;;16.56;76.81;99948.47;5114298;28;8828;-61
2023/05/12 08:11:37;;;;;;;;;6.00;6.00;;;;;16.59;76.83;99943.63;5113986;28;9529;-59
2023/05/12 08:14:06;;;;;;;;;6.00;6.00;;;;;16.63;76.58;99952.22;5113398;28;8850;-59
2023/05/12 08:16:33;;;;;;;;;4.40;4.00;;;;;16.66;76.58;99946.50;5113182;28;8925;-61
2023/05/12 08:19:01;;;;;;;;;6.00;6.00;;;;;16.73;76.28;99952.94;5113860;28;8828;-61
2023/05/12 08:21:30;;;;;;;;;3.80;3.40;;;;;16.79;76.35;99953.13;5114316;28;8941;-60
2023/05/12 08:23:58;;;;;;;;;4.40;4.40;;;;;16.86;76.18;99950.66;5114945;28;8835;-61
2023/05/12 08:26:26;;;;;;;;;4.00;4.00;;;;;16.91;75.87;99953.69;5116523;28;8850;-62
2023/05/12 08:28:55;;;;;;;;;4.00;4.00;;;;;16.97;76.02;99950.34;5119494;28;8859;-61
2023/05/12 08:31:23;;;;;;;;;6.40;3.80;;;;;17.05;76.10;99959.31;5119253;28;8816;-61
2023/05/12 08:33:51;;;;;;;;;3.00;2.60;;;;;17.10;76.09;99948.06;5119310;28;8836;-60
2023/05/12 08:36:37;;;;;;;;;4.40;4.00;;;;;17.13;75.49;99962.03;5118686;28;8828;-60
2023/05/12 08:39:05;;;;;;;;;5.60;4.00;;;;;17.18;75.41;99965.09;5118248;28;8831;-61
2023/05/12 08:41:33;;;;;;;;;4.40;4.40;;;;;17.24;75.41;99964.41;5118717;28;8835;-61
2023/05/12 08:44:00;;;;;;;;;6.00;6.00;;;;;17.35;75.14;99956.03;5119395;28;8865;-60
2023/05/12 08:46:28;;;;;;;;;3.40;3.40;;;;;17.46;75.33;99961.13;5118756;28;8844;-59
2023/05/12 08:48:56;;;;;;;;;7.40;5.80;;;;;17.57;75.00;99970.75;5118534;28;8850;-59
2023/05/12 08:51:24;;;;;;;;;4.40;4.40;;;;;17.68;74.64;99967.75;5118592;28;8946;-59
2023/05/12 08:53:52;;;;;;;;;4.40;4.40;;;;;17.80;74.44;99969.94;5117575;28;8843;-60
2023/05/12 08:56:20;;;;;;;;;3.60;3.60;;;;;17.92;73.85;99967.75;5117350;28;8962;-62
2023/05/12 08:58:51;;;;;;;;;8.20;6.00;;;;;18.07;73.89;99960.69;5117458;28;8922;-59
2023/05/12 09:01:20;;;;;;;;;5.20;5.20;;;;;18.19;73.35;99970.97;5117967;28;8840;-59
2023/05/12 09:03:48;;;;;;;;;8.20;6.60;;;;;18.31;73.08;99971.50;5118110;28;8854;-59
2023/05/12 09:06:16;;;;;;;;;7.00;7.00;;;;;18.39;72.99;99969.63;5117663;28;8850;-59
2023/05/12 09:08:43;;;;;;;;;6.00;6.00;;;;;18.52;73.13;99967.22;5118838;28;8865;-59
2023/05/12 09:11:12;;;;;;;;;4.40;4.00;;;;;18.63;72.70;99968.72;5118069;28;8970;-59
2023/05/12 09:13:42;;;;;;;;;6.80;6.80;;;;;18.76;71.82;99961.75;5117977;28;8840;-62
2023/05/12 09:16:10;;;;;;;;;4.00;4.00;;;;;18.90;72.17;99965.63;5117545;28;8917;-60
2023/05/12 09:18:39;;;;;;;;;6.00;6.00;;;;;19.03;71.95;99965.91;5118502;28;8820;-60
2023/05/12 09:21:06;;;;;;;;;6.80;6.60;;;;;19.18;71.63;99970.38;5117675;28;8831;-61
2023/05/12 09:23:34;;;;;;;;;4.60;4.00;;;;;19.30;71.38;99968.16;5117162;28;8859;-60
2023/05/12 09:26:02;;;;;;;;;5.60;4.60;;;;;19.45;70.83;99961.00;5117084;28;8991;-59
2023/05/12 09:28:31;;;;;;;;;6.60;6.60;;;;;19.64;70.07;99963.25;5117084;28;8827;-60
2023/05/12 09:30:59;;;;;;;;;2.20;2.20;;;;;19.81;69.60;99962.09;5115375;28;9501;-61
2023/05/12 09:33:26;;;;;;;;;4.80;4.80;;;;;19.96;69.63;99965.72;5115101;28;8962;-60
2023/05/12 09:35:54;;;;;;;;;4.60;4.00;;;;;20.11;69.44;99963.94;5115579;28;8941;-62
2023/05/12 09:38:22;;;;;;;;;7.60;6.60;;;;;20.26;68.62;99957.53;5114236;28;8927;-61
2023/05/12 09:40:51;;;;;;;;;5.00;5.00;;;;;20.36;68.50;99962.69;5115933;28;8836;-60
2023/05/12 09:43:19;;;;;;;;;6.60;6.60;;;;;20.49;68.10;99958.31;5116637;28;9008;-62
2023/05/12 09:45:48;;;;;;;;;7.20;7.00;;;;;20.67;68.17;99958.81;5115939;28;8848;-61
2023/05/12 09:48:16;;;;;;;;;7.60;5.40;;;;;20.74;68.13;99962.47;5116009;28;8831;-62
2023/05/12 09:50:45;;;;;;;;;7.00;7.00;;;;;20.71;67.96;99962.81;5116053;28;8933;-61
2023/05/12 09:53:16;;;;;;;;;4.00;3.20;;;;;20.72;68.12;99967.22;5115518;28;8963;-61
2023/05/12 09:55:44;;;;;;;;;5.80;5.80;;;;;20.70;68.56;99971.97;5115280;28;8864;-61
2023/05/12 09:58:11;;;;;;;;;6.00;4.60;;;;;20.73;68.33;99972.44;5116770;28;8933;-60
2023/05/12 10:00:39;;;;;;;;;5.00;5.00;;;;;20.72;68.13;99969.94;5115747;28;8875;-59
2023/05/12 10:03:27;;;;;;;;;7.80;6.20;;;;;20.67;68.77;99969.63;5115873;28;8852;-60
2023/05/12 10:05:56;;;;;;;;;5.80;5.00;;;;;20.74;68.62;99967.88;5116361;28;8859;-60
2023/05/12 10:08:23;;;;;;;;;2.00;2.00;;;;;20.80;68.26;99964.44;5115967;28;8872;-59
2023/05/12 10:10:51;;;;;;;;;5.00;5.00;;;;;20.78;68.12;99970.00;5114817;28;8828;-60
2023/05/12 10:13:19;;;;;;;;;6.60;5.00;;;;;20.74;68.43;99970.56;5114977;28;8836;-60
2023/05/12 10:15:47;;;;;;;;;7.40;5.80;;;;;20.63;68.27;99967.50;5115643;28;8831;-63
2023/05/12 10:18:15;;;;;;;;;5.00;5.00;;;;;20.53;68.90;99972.31;5115955;28;8909;-60
2023/05/12 10:20:43;;;;;;;;;7.40;5.80;;;;;20.48;69.12;99967.44;5116397;28;8824;-60
2023/05/12 10:23:12;;;;;;;;;5.80;5.40;;;;;20.41;69.72;99966.50;5116001;28;8828;-61
2023/05/12 10:25:40;;;;;;;;;8.80;8.00;;;;;20.93;68.08;99970.03;5115436;28;8820;-60
2023/05/12 10:28:08;;;;;;;;;8.00;8.00;;;;;21.73;66.22;99966.28;5116105;28;8859;-60
2023/05/12 10:30:37;;;;;;;;;8.00;6.80;;;;;22.59;64.72;99947.88;5115951;28;8960;-60
2023/05/12 10:33:07;;;;;;;;;8.00;6.40;;;;;23.34;63.02;99940.56;5115407;28;8927;-60
2023/05/12 10:35:35;;;;;;;;;8.60;8.00;;;;;23.84;62.38;99951.84;5116613;28;8890;-59
2023/05/12 10:38:03;;;;;;;;;6.00;6.00;;;;;23.89;62.14;99951.25;5116337;28;8844;-60
2023/05/12 10:40:31;;;;;;;;;9.00;8.60;;;;;23.68;62.66;99951.38;5115901;28;8862;-59
2023/05/12 10:43:00;;;;;;;;;8.00;6.00;;;;;23.72;61.77;99945.31;5114879;28;8840;-61
2023/05/12 10:45:29;;;;;;;;;8.00;8.00;;;;;23.46;62.97;99936.25;5115149;28;8850;-60
2023/05/12 10:47:57;;;;;;;;;8.80;7.20;;;;;23.43;63.29;99947.53;5115307;28;8832;-60
2023/05/12 10:50:25;;;;;;;;;9.80;9.00;;;;;23.48;63.29;99945.88;5115273;28;9517;-60
2023/05/12 10:52:53;;;;;;;;;6.00;5.00;;;;;23.60;62.69;99940.69;5115380;28;8863;-60
2023/05/12 10:55:21;;;;;;;;;8.20;8.20;;;;;23.28;63.76;99950.38;5115041;28;8835;-61
2023/05/12 10:57:50;;;;;;;;;9.20;8.60;;;;;22.78;65.15;99947.19;5114491;28;8852;-60
2023/05/12 11:00:19;;;;;;;;;7.60;6.40;;;;;23.03;64.91;99942.91;5113334;28;8928;-59
2023/05/12 11:02:47;;;;;;;;;8.20;8.00;;;;;23.08;63.79;99940.44;5113720;28;8836;-60
2023/05/12 11:05:17;;;;;;;;;7.80;7.20;;;;;22.65;64.78;99941.66;5113362;28;8867;-59
2023/05/12 11:07:46;;;;;;;;;6.00;6.00;;;;;22.21;65.85;99935.66;5114182;28;8835;-60
2023/05/12 11:10:14;;;;;;;;;4.00;4.00;;;;;21.91;66.92;99950.41;5114577;28;8847;-60
2023/05/12 11:12:44;;;;;;;;;4.00;4.00;;;;;21.76;66.57;99945.06;5114587;28;8867;-59
2023/05/12 11:15:12;;;;;;;;;9.00;9.00;;;;;21.81;66.74;99937.19;5112917;28;8832;-59
2023/05/12 11:17:42;;;;;;;;;1.80;1.00;;;;;21.92;66.20;99935.78;5114150;28;8831;-59
2023/05/12 11:20:11;;;;;;;;;7.60;6.00;;;;;22.09;66.17;99939.94;5114675;28;8844;-60
2023/05/12 11:22:38;;;;;;;;;7.20;6.40;;;;;22.26;64.66;99942.19;5114932;28;8828;-59
2023/05/12 11:25:06;;;;;;;;;5.00;5.00;;;;;22.42;64.65;99941.91;5114900;28;8843;-59
2023/05/12 11:27:34;;;;;;;;;5.00;5.00;;;;;22.41;64.14;99939.38;5114532;28;8844;-60
2023/05/12 11:30:03;;;;;;;;;8.80;8.00;;;;;22.45;64.18;99946.09;5114105;28;9501;-59
2023/05/12 11:32:32;;;;;;;;;6.40;6.40;;;;;22.58;63.79;99938.06;5114755;28;8856;-59
2023/05/12 11:35:00;;;;;;;;;7.40;5.80;;;;;22.73;63.12;99950.50;5113423;28;8864;-60
2023/05/12 11:37:28;;;;;;;;;8.40;8.00;;;;;22.86;62.93;99949.72;5113876;28;8912;-59
2023/05/12 11:39:55;;;;;;;;;7.60;7.20;;;;;22.82;62.13;99940.28;5114038;28;9759;-60
2023/05/12 11:42:23;;;;;;;;;10.20;10.20;;;;;22.71;62.23;99954.44;5113216;28;8832;-60
2023/05/12 11:44:54;;;;;;;;;8.00;8.00;;;;;22.62;62.19;99940.16;5113018;28;8830;-62